createdAt,value
2022-11-26T00:02:22.809Z,17.40
2022-11-26T00:04:51.178Z,19.40
2022-11-26T00:07:25.487Z,17.90
2022-11-26T00:09:53.850Z,20.20
2022-11-26T00:12:23.658Z,20.10
2022-11-26T00:14:51.248Z,20.40
2022-11-26T00:17:19.386Z,21.70
2022-11-26T00:19:46.787Z,20.00
2022-11-26T00:22:31.939Z,20.80
2022-11-26T00:24:58.800Z,19.40
2022-11-26T00:27:27.160Z,17.10
2022-11-26T00:29:54.701Z,18.10
2022-11-26T00:32:24.778Z,20.20
2022-11-26T00:34:52.711Z,17.60
2022-11-26T00:37:27.813Z,19.10
2022-11-26T00:39:55.877Z,19.80
2022-11-26T00:42:22.870Z,18.50
2022-11-26T00:44:49.922Z,18.10
2022-11-26T00:47:16.640Z,18.40
2022-11-26T00:49:43.489Z,18.50
2022-11-26T00:52:33.664Z,18.20
2022-11-26T00:55:06.692Z,17.70
2022-11-26T00:57:34.221Z,19.00
2022-11-26T01:00:00.977Z,19.40
2022-11-26T01:02:27.840Z,19.30
2022-11-26T01:04:54.697Z,17.00
2022-11-26T01:07:21.530Z,19.80
2022-11-26T01:09:49.555Z,19.50
2022-11-26T01:12:16.308Z,18.50
2022-11-26T01:14:43.116Z,17.50
2022-11-26T01:17:11.635Z,21.00
2022-11-26T01:19:38.422Z,18.30
2022-11-26T01:22:05.155Z,20.60
2022-11-26T01:24:31.943Z,20.60
2022-11-26T01:26:58.682Z,18.60
2022-11-26T01:29:25.542Z,21.40
2022-11-26T01:31:52.361Z,18.40
2022-11-26T01:34:19.159Z,19.90
2022-11-26T01:36:45.911Z,17.40
2022-11-26T01:39:20.786Z,19.80
2022-11-26T01:41:59.466Z,18.50
2022-11-26T01:44:29.392Z,18.60
2022-11-26T01:46:57.690Z,17.90
2022-11-26T01:49:33.037Z,19.40
2022-11-26T01:52:05.617Z,18.70
2022-11-26T01:54:36.468Z,19.50
2022-11-26T01:57:18.395Z,19.70
2022-11-26T01:59:50.606Z,19.10
2022-11-26T02:02:18.404Z,19.70
2022-11-26T02:04:54.656Z,19.40
2022-11-26T02:07:21.561Z,18.50
2022-11-26T02:09:48.572Z,19.10
2022-11-26T02:12:15.380Z,14.50
2022-11-26T02:14:43.572Z,19.10
2022-11-26T02:17:24.889Z,19.50
2022-11-26T02:20:13.081Z,18.60
2022-11-26T02:22:45.829Z,17.60
2022-11-26T02:25:15.438Z,18.40
2022-11-26T02:28:09.948Z,18.50
2022-11-26T02:30:41.404Z,19.10
2022-11-26T02:33:34.649Z,18.90
2022-11-26T02:36:21.789Z,19.50
2022-11-26T02:38:49.801Z,19.50
2022-11-26T02:41:17.400Z,18.70
2022-11-26T02:43:44.630Z,18.20
2022-11-26T02:46:18.118Z,18.20
2022-11-26T02:48:49.322Z,19.90
2022-11-26T02:51:23.650Z,17.10
2022-11-26T02:53:52.227Z,18.60
2022-11-26T02:56:28.897Z,20.40
2022-11-26T02:58:56.834Z,16.70
2022-11-26T03:01:39.490Z,18.60
2022-11-26T03:04:11.281Z,18.60
2022-11-26T03:06:39.729Z,20.90
2022-11-26T03:09:06.888Z,16.30
2022-11-26T03:11:33.848Z,18.40
2022-11-26T03:14:00.808Z,20.60
2022-11-26T03:16:27.644Z,20.40
2022-11-26T03:18:54.518Z,17.00
2022-11-26T03:21:21.356Z,18.00
2022-11-26T03:23:48.342Z,20.50
2022-11-26T03:26:15.152Z,18.50
2022-11-26T03:28:41.973Z,19.80
2022-11-26T03:31:08.856Z,17.40
2022-11-26T03:33:35.740Z,20.50
2022-11-26T03:36:02.800Z,17.90
2022-11-26T03:38:29.590Z,16.80
2022-11-26T03:41:01.712Z,18.40
2022-11-26T03:46:20.700Z,17.30
2022-11-26T03:48:47.500Z,16.70
2022-11-26T03:51:14.267Z,20.80
2022-11-26T03:53:41.096Z,19.30
2022-11-26T03:56:08.145Z,19.20
2022-11-26T03:58:35.113Z,18.40
2022-11-26T04:01:07.926Z,17.30
2022-11-26T04:03:34.852Z,19.30
2022-11-26T04:06:01.970Z,20.00
2022-11-26T04:08:28.820Z,17.90
2022-11-26T04:10:55.650Z,16.80
2022-11-26T04:13:22.618Z,19.00
2022-11-26T04:15:49.548Z,20.80
2022-11-26T04:18:16.342Z,17.70
2022-11-26T04:20:43.500Z,19.70
2022-11-26T04:23:10.706Z,20.10
2022-11-26T04:25:37.477Z,17.90
2022-11-26T04:28:04.377Z,19.10
2022-11-26T04:30:31.325Z,19.30
2022-11-26T04:32:58.154Z,16.70
2022-11-26T04:35:25.068Z,13.50
2022-11-26T04:37:51.944Z,17.10
2022-11-26T04:40:19.503Z,14.50
2022-11-26T04:42:46.281Z,16.90
2022-11-26T04:45:13.100Z,18.10
2022-11-26T04:47:42.889Z,18.20
2022-11-26T04:50:10.820Z,19.50
2022-11-26T04:52:37.667Z,15.50
2022-11-26T04:55:04.864Z,18.00
2022-11-26T04:57:31.695Z,18.90
2022-11-26T04:59:58.476Z,16.80
2022-11-26T05:02:25.326Z,17.30
2022-11-26T05:04:52.194Z,16.30
2022-11-26T05:07:19.134Z,18.50
2022-11-26T05:09:45.969Z,17.80
2022-11-26T05:12:12.875Z,16.00
2022-11-26T05:14:40.069Z,18.40
2022-11-26T05:17:07.240Z,16.00
2022-11-26T05:19:34.418Z,16.60
2022-11-26T05:22:01.240Z,17.40
2022-11-26T05:24:28.147Z,16.40
2022-11-26T05:26:57.213Z,14.70
2022-11-26T05:29:25.455Z,13.40
2022-11-26T05:31:52.554Z,14.30
2022-11-26T05:34:20.524Z,14.50
2022-11-26T05:36:47.383Z,14.90
2022-11-26T05:39:14.182Z,17.10
2022-11-26T05:41:40.971Z,14.20
2022-11-26T05:44:07.952Z,16.60
2022-11-26T05:46:39.538Z,16.00
2022-11-26T05:49:06.899Z,14.60
2022-11-26T05:51:33.948Z,16.00
2022-11-26T05:54:00.977Z,15.20
2022-11-26T05:56:27.939Z,15.40
2022-11-26T05:58:54.867Z,17.10
2022-11-26T06:01:21.643Z,14.40
2022-11-26T06:03:48.462Z,15.40
2022-11-26T06:06:15.332Z,14.70
2022-11-26T06:08:42.031Z,15.90
2022-11-26T06:11:13.800Z,16.50
2022-11-26T06:13:40.610Z,13.30
2022-11-26T06:16:07.848Z,16.10
2022-11-26T06:18:37.308Z,14.20
2022-11-26T06:21:06.078Z,16.00
2022-11-26T06:23:33.933Z,16.10
2022-11-26T06:26:00.785Z,18.40
2022-11-26T06:28:27.531Z,16.60
2022-11-26T06:30:55.306Z,16.40
2022-11-26T06:33:22.172Z,16.90
2022-11-26T06:35:48.964Z,15.90
2022-11-26T06:38:18.489Z,15.10
2022-11-26T06:40:45.308Z,14.90
2022-11-26T06:43:12.260Z,16.60
2022-11-26T06:45:39.091Z,15.10
2022-11-26T06:48:05.937Z,18.60
2022-11-26T06:50:32.910Z,18.40
2022-11-26T06:52:59.756Z,18.60
2022-11-26T06:55:26.545Z,16.50
2022-11-26T06:57:53.869Z,18.50
2022-11-26T07:00:21.512Z,18.40
2022-11-26T07:02:48.414Z,19.70
2022-11-26T07:05:15.291Z,16.40
2022-11-26T07:07:42.252Z,20.70
2022-11-26T07:10:09.279Z,17.50
2022-11-26T07:12:36.357Z,16.80
2022-11-26T07:15:03.578Z,17.50
2022-11-26T07:17:30.355Z,17.60
2022-11-26T07:19:57.339Z,17.80
2022-11-26T07:22:24.156Z,16.20
2022-11-26T07:24:51.074Z,17.50
2022-11-26T07:27:17.784Z,17.50
2022-11-26T07:29:44.567Z,18.50
2022-11-26T07:32:11.344Z,16.30
2022-11-26T07:34:38.354Z,18.60
2022-11-26T07:37:05.674Z,18.20
2022-11-26T07:39:32.550Z,17.70
2022-11-26T07:41:59.311Z,20.50
2022-11-26T07:44:26.163Z,17.70
2022-11-26T07:46:53.138Z,18.40
2022-11-26T07:49:19.917Z,17.00
2022-11-26T07:51:46.948Z,17.70
2022-11-26T07:54:13.738Z,19.20
2022-11-26T07:56:40.445Z,18.50
2022-11-26T07:59:07.235Z,18.80
2022-11-26T08:01:36.069Z,18.10
2022-11-26T08:04:05.933Z,19.00
2022-11-26T08:06:33.972Z,15.10
2022-11-26T08:09:02.288Z,16.10
2022-11-26T08:11:32.330Z,17.10
2022-11-26T08:14:05.477Z,16.30
2022-11-26T08:16:33.417Z,28.20
2022-11-26T08:19:03.475Z,34.00
2022-11-26T08:21:30.323Z,20.40
2022-11-26T08:23:58.123Z,23.50
2022-11-26T08:26:33.059Z,32.80
2022-11-26T08:29:03.197Z,22.20
2022-11-26T08:31:30.000Z,23.40
2022-11-26T08:34:01.293Z,23.90
2022-11-26T08:36:29.744Z,27.30
2022-11-26T08:38:57.641Z,44.80
2022-11-26T08:41:24.583Z,48.10
2022-11-26T08:44:06.060Z,24.10
2022-11-26T08:46:37.791Z,24.80
2022-11-26T08:49:05.674Z,34.30
2022-11-26T08:51:33.822Z,25.10
2022-11-26T08:54:00.992Z,20.50
2022-11-26T08:56:27.950Z,18.00
2022-11-26T08:58:54.700Z,28.70
2022-11-26T09:01:30.350Z,26.20
2022-11-26T09:03:59.724Z,17.10
2022-11-26T09:06:29.511Z,34.20
2022-11-26T09:09:14.956Z,35.10
2022-11-26T09:11:45.828Z,31.10
2022-11-26T09:14:15.094Z,22.00
2022-11-26T09:16:42.615Z,16.20
2022-11-26T09:19:11.323Z,16.10
2022-11-26T09:21:38.466Z,17.20
2022-11-26T09:24:05.931Z,15.90
2022-11-26T09:26:33.799Z,17.30
2022-11-26T09:29:01.300Z,18.20
2022-11-26T09:31:28.909Z,15.30
2022-11-26T09:33:58.050Z,14.40
2022-11-26T09:36:25.711Z,13.80
2022-11-26T09:38:56.695Z,14.00
2022-11-26T09:41:32.102Z,12.50
2022-11-26T09:44:14.217Z,13.60
2022-11-26T09:47:12.082Z,13.40
2022-11-26T09:49:51.005Z,23.60
2022-11-26T09:52:20.795Z,17.10
2022-11-26T09:54:51.732Z,13.10
2022-11-26T09:57:30.508Z,13.90
2022-11-26T09:59:57.407Z,19.10
2022-11-26T10:02:25.323Z,12.60
2022-11-26T10:04:52.655Z,13.00
2022-11-26T10:07:44.753Z,12.90
2022-11-26T10:10:21.327Z,11.10
2022-11-26T10:13:17.190Z,10.80
2022-11-26T10:16:19.820Z,10.70
2022-11-26T10:19:02.371Z,12.00
2022-11-26T10:21:58.093Z,10.70
2022-11-26T10:24:41.616Z,11.20
2022-11-26T10:27:15.657Z,11.00
2022-11-26T10:29:48.430Z,9.70
2022-11-26T10:32:23.284Z,10.80
2022-11-26T10:34:52.593Z,10.20
2022-11-26T10:37:21.777Z,9.20
2022-11-26T10:39:58.619Z,9.30
2022-11-26T10:42:41.265Z,8.90
2022-11-26T10:45:21.904Z,9.30
2022-11-26T10:47:48.734Z,7.90
2022-11-26T10:50:46.592Z,9.90
2022-11-26T10:53:06.337Z,9.40
2022-11-26T10:55:43.124Z,8.50
2022-11-26T10:58:21.714Z,8.80
2022-11-26T11:00:48.665Z,9.00
2022-11-26T11:03:33.183Z,8.10
2022-11-26T11:06:25.430Z,9.40
2022-11-26T11:08:54.018Z,8.80
2022-11-26T11:11:27.286Z,10.30
2022-11-26T11:13:54.665Z,9.70
2022-11-26T11:16:40.174Z,8.90
2022-11-26T11:19:21.417Z,11.00
2022-11-26T11:21:48.935Z,10.90
2022-11-26T11:24:17.213Z,8.70
2022-11-26T11:26:47.021Z,10.60
2022-11-26T11:29:42.954Z,11.10
2022-11-26T11:32:35.006Z,9.90
2022-11-26T11:35:29.847Z,10.30
2022-11-26T11:37:57.655Z,10.50
2022-11-26T11:40:29.803Z,8.40
2022-11-26T11:43:04.902Z,8.10
2022-11-26T11:46:00.663Z,7.90
2022-11-26T11:48:49.096Z,7.10
2022-11-26T11:51:36.962Z,9.20
2022-11-26T11:54:20.455Z,8.30
2022-11-26T11:57:05.069Z,10.60
2022-11-26T11:59:57.674Z,14.20
2022-11-26T12:02:37.223Z,13.50
2022-11-26T12:05:22.458Z,10.60
2022-11-26T12:07:58.417Z,13.40
2022-11-26T12:10:39.668Z,9.10
2022-11-26T12:13:12.603Z,9.10
2022-11-26T12:15:52.398Z,10.30
2022-11-26T12:18:31.186Z,9.50
2022-11-26T12:21:24.127Z,11.40
2022-11-26T12:23:58.097Z,10.10
2022-11-26T12:26:36.253Z,10.20
2022-11-26T12:29:14.202Z,9.30
2022-11-26T12:31:48.778Z,11.90
2022-11-26T12:34:39.919Z,10.40
2022-11-26T12:37:18.249Z,10.60
2022-11-26T12:39:55.263Z,11.60
2022-11-26T12:42:33.711Z,10.80
2022-11-26T12:45:29.978Z,11.00
2022-11-26T12:48:05.197Z,9.90
2022-11-26T12:50:42.724Z,10.10
2022-11-26T12:53:47.161Z,10.80
2022-11-26T12:56:41.140Z,9.30
2022-11-26T12:59:07.819Z,10.90
2022-11-26T13:01:34.694Z,10.80
2022-11-26T13:04:29.826Z,11.80
2022-11-26T13:07:05.916Z,9.60
2022-11-26T13:10:10.261Z,9.40
2022-11-26T13:13:02.217Z,11.30
2022-11-26T13:15:41.502Z,12.00
2022-11-26T13:18:43.120Z,11.50
2022-11-26T13:21:16.115Z,12.30
2022-11-26T13:23:45.551Z,12.30
2022-11-26T13:26:37.512Z,13.70
2022-11-26T13:29:33.633Z,13.20
2022-11-26T13:32:26.698Z,14.50
2022-11-26T13:35:16.638Z,11.80
2022-11-26T13:38:05.101Z,13.40
2022-11-26T13:40:40.029Z,12.10
2022-11-26T13:43:10.062Z,11.80
2022-11-26T13:45:49.199Z,11.80
2022-11-26T13:48:37.248Z,9.10
2022-11-26T13:51:11.968Z,10.70
2022-11-26T13:53:56.299Z,11.80
2022-11-26T13:56:26.591Z,10.80
2022-11-26T13:59:08.073Z,13.10
2022-11-26T14:01:42.193Z,12.90
2022-11-26T14:07:05.179Z,10.80
2022-11-26T14:09:44.319Z,11.80
2022-11-26T14:12:12.839Z,11.50
2022-11-26T14:14:41.985Z,12.60
2022-11-26T14:17:23.229Z,13.70
2022-11-26T14:19:56.249Z,14.80
2022-11-26T14:22:22.905Z,13.00
2022-11-26T14:24:52.138Z,12.50
2022-11-26T14:27:25.206Z,12.80
2022-11-26T14:30:07.011Z,12.90
2022-11-26T14:32:39.865Z,12.20
2022-11-26T14:35:20.574Z,13.90
2022-11-26T14:37:53.029Z,16.00
2022-11-26T14:40:26.537Z,15.20
2022-11-26T14:43:14.935Z,14.70
2022-11-26T14:45:44.201Z,14.40
2022-11-26T14:48:21.027Z,14.50
2022-11-26T14:50:48.137Z,14.70
2022-11-26T14:53:15.656Z,14.50
2022-11-26T14:55:43.908Z,14.80
2022-11-26T14:58:18.568Z,16.30
2022-11-26T15:01:20.431Z,15.50
2022-11-26T15:04:25.017Z,17.20
2022-11-26T15:06:51.961Z,16.10
2022-11-26T15:09:25.109Z,15.80
2022-11-26T15:12:12.071Z,18.70
2022-11-26T15:14:55.258Z,18.60
2022-11-26T15:17:24.155Z,19.00
2022-11-26T15:19:53.654Z,18.80
2022-11-26T15:22:33.998Z,21.10
2022-11-26T15:25:01.302Z,18.40
2022-11-26T15:27:47.534Z,16.20
2022-11-26T15:30:24.417Z,15.40
2022-11-26T15:33:02.446Z,18.40
2022-11-26T15:35:30.469Z,17.60
2022-11-26T15:37:57.947Z,17.60
2022-11-26T15:40:47.038Z,16.60
2022-11-26T15:43:22.037Z,19.30
2022-11-26T15:45:50.779Z,17.30
2022-11-26T15:48:51.882Z,18.20
2022-11-26T15:51:30.709Z,17.10
2022-11-26T15:54:01.990Z,16.00
2022-11-26T15:56:36.293Z,18.40
2022-11-26T15:59:12.803Z,17.20
2022-11-26T16:01:43.890Z,18.30
2022-11-26T16:04:32.485Z,18.40
2022-11-26T16:07:20.650Z,19.70
2022-11-26T16:09:49.668Z,18.60
2022-11-26T16:12:34.022Z,16.70
2022-11-26T16:17:47.628Z,15.50
2022-11-26T16:20:24.723Z,18.30
2022-11-26T16:22:56.303Z,16.70
2022-11-26T16:25:34.046Z,18.00
2022-11-26T16:28:09.916Z,18.30
2022-11-26T16:30:38.535Z,20.70
2022-11-26T16:33:06.532Z,21.40
2022-11-26T16:35:50.436Z,20.10
2022-11-26T16:38:22.757Z,19.40
2022-11-26T16:40:50.164Z,18.40
2022-11-26T16:43:17.882Z,20.90
2022-11-26T16:45:45.614Z,20.90
2022-11-26T16:48:23.887Z,21.80
2022-11-26T16:50:53.058Z,18.40
2022-11-26T16:53:20.067Z,19.10
2022-11-26T16:55:49.253Z,19.90
2022-11-26T16:58:26.176Z,21.00
2022-11-26T17:00:54.171Z,19.10
2022-11-26T17:03:24.772Z,19.10
2022-11-26T17:05:55.053Z,19.10
2022-11-26T17:08:22.538Z,15.20
2022-11-26T17:10:50.736Z,17.90
2022-11-26T17:13:17.964Z,16.80
2022-11-26T17:15:44.981Z,15.80
2022-11-26T17:18:22.619Z,16.10
2022-11-26T17:20:50.859Z,17.20
2022-11-26T17:23:18.235Z,17.50
2022-11-26T17:25:48.009Z,17.80
2022-11-26T17:28:15.591Z,16.80
2022-11-26T17:30:44.140Z,18.40
2022-11-26T17:33:11.049Z,16.60
2022-11-26T17:35:38.410Z,18.10
2022-11-26T17:38:13.751Z,16.60
2022-11-26T17:40:41.273Z,17.60
2022-11-26T17:43:08.400Z,18.40
2022-11-26T17:45:35.129Z,18.20
2022-11-26T17:48:01.903Z,16.20
2022-11-26T17:50:30.202Z,15.50
2022-11-26T17:52:56.920Z,15.70
2022-11-26T17:55:25.988Z,16.10
2022-11-26T17:57:54.734Z,15.10
2022-11-26T18:00:27.542Z,16.70
2022-11-26T18:02:57.518Z,16.70
2022-11-26T18:05:25.003Z,17.30
2022-11-26T18:07:52.340Z,15.60
2022-11-26T18:10:21.868Z,15.50
2022-11-26T18:12:51.467Z,15.10
2022-11-26T18:15:21.015Z,18.40
2022-11-26T18:17:50.394Z,16.00
2022-11-26T18:20:19.767Z,18.40
2022-11-26T18:22:50.534Z,19.20
2022-11-26T18:25:17.346Z,15.20
2022-11-26T18:27:45.021Z,16.70
2022-11-26T18:30:13.141Z,18.50
2022-11-26T18:32:40.120Z,18.80
2022-11-26T18:35:07.707Z,18.50
2022-11-26T18:37:36.410Z,18.60
2022-11-26T18:40:04.606Z,16.50
2022-11-26T18:42:38.900Z,17.90
2022-11-26T18:45:08.622Z,17.70
2022-11-26T18:47:37.053Z,16.40
2022-11-26T18:50:04.590Z,17.50
2022-11-26T18:52:31.319Z,17.10
2022-11-26T18:54:59.429Z,15.80
2022-11-26T18:57:27.337Z,18.70
2022-11-26T18:59:54.069Z,18.20
2022-11-26T19:02:22.438Z,18.00
2022-11-26T19:04:49.387Z,18.20
2022-11-26T19:07:16.222Z,18.40
2022-11-26T19:09:43.386Z,19.30
2022-11-26T19:12:12.415Z,17.90
2022-11-26T19:14:39.462Z,21.10
2022-11-26T19:17:06.507Z,20.00
2022-11-26T19:19:33.543Z,20.90
2022-11-26T19:22:01.652Z,21.00
2022-11-26T19:24:29.726Z,24.40
2022-11-26T19:26:57.138Z,20.40
2022-11-26T19:29:24.024Z,21.10
2022-11-26T19:31:50.785Z,20.90
2022-11-26T19:34:17.617Z,26.60
2022-11-26T19:36:47.626Z,21.40
2022-11-26T19:39:15.396Z,19.70
2022-11-26T19:41:42.545Z,20.70
2022-11-26T19:44:09.387Z,19.70
2022-11-26T19:46:40.077Z,16.80
2022-11-26T20:13:48.512Z,17.00
2022-11-26T20:16:25.502Z,26.40
2022-11-26T20:18:52.998Z,19.70
2022-11-26T20:21:23.366Z,25.80
2022-11-26T20:23:51.250Z,24.60
2022-11-26T20:26:28.475Z,40.60
2022-11-26T20:28:59.091Z,32.60
2022-11-26T20:31:25.997Z,30.30
2022-11-26T20:33:54.216Z,23.50
2022-11-26T20:36:22.260Z,31.20
2022-11-26T20:38:58.698Z,34.20
2022-11-26T20:41:29.267Z,25.60
2022-11-26T20:43:59.966Z,30.40
2022-11-26T20:46:27.922Z,34.80
2022-11-26T20:48:56.107Z,27.10
2022-11-26T20:51:24.323Z,27.40
2022-11-26T20:53:52.715Z,20.50
2022-11-26T20:56:21.759Z,22.40
2022-11-26T20:58:50.009Z,19.70
2022-11-26T21:01:18.503Z,22.20
2022-11-26T21:03:45.588Z,20.70
2022-11-26T21:06:18.059Z,20.10
2022-11-26T21:08:45.362Z,19.50
2022-11-26T21:11:13.744Z,18.00
2022-11-26T21:13:41.841Z,18.10
2022-11-26T21:16:15.956Z,22.30
2022-11-26T21:18:43.509Z,19.20
2022-11-26T21:21:12.611Z,18.80
2022-11-26T21:23:41.261Z,16.80
2022-11-26T21:26:10.379Z,18.20
2022-11-26T21:28:37.766Z,21.80
2022-11-26T21:31:10.736Z,16.80
2022-11-26T21:33:37.623Z,16.30
2022-11-26T21:36:06.223Z,18.20
2022-11-26T21:38:33.862Z,19.90
2022-11-26T21:41:11.969Z,25.30
2022-11-26T21:43:40.081Z,18.70
2022-11-26T21:46:09.392Z,17.90
2022-11-26T21:48:36.337Z,17.20
2022-11-26T21:51:08.892Z,22.30
2022-11-26T21:53:35.800Z,18.20
2022-11-26T21:56:12.907Z,15.70
2022-11-26T21:58:40.161Z,14.80
2022-11-26T22:01:18.558Z,14.90
2022-11-26T22:03:52.208Z,16.00
2022-11-26T22:06:20.711Z,16.30
2022-11-26T22:08:48.205Z,16.70
2022-11-26T22:11:20.891Z,17.00
2022-11-26T22:13:48.195Z,17.80
2022-11-26T22:16:17.163Z,15.00
2022-11-26T22:18:45.203Z,17.20
2022-11-26T22:21:24.546Z,15.90
2022-11-26T22:23:51.879Z,15.80
2022-11-26T22:26:19.668Z,18.50
2022-11-26T22:28:48.162Z,15.80
2022-11-26T22:31:18.805Z,15.00
2022-11-26T22:33:46.025Z,16.00
2022-11-26T22:36:13.395Z,17.10
2022-11-26T22:38:41.464Z,17.70
2022-11-26T22:41:11.206Z,14.00
2022-11-26T22:43:38.815Z,14.30
2022-11-26T22:46:13.833Z,14.50
2022-11-26T22:48:41.782Z,14.20
2022-11-26T22:51:09.603Z,15.30
2022-11-26T22:53:36.692Z,13.40
2022-11-26T22:56:04.609Z,13.80
2022-11-26T22:58:33.539Z,14.30
2022-11-26T23:01:03.631Z,14.80
2022-11-26T23:03:33.095Z,14.60
2022-11-26T23:06:05.522Z,13.70
2022-11-26T23:08:32.899Z,14.20
2022-11-26T23:11:10.482Z,12.70
2022-11-26T23:13:40.683Z,13.80
2022-11-26T23:16:08.813Z,14.20
2022-11-26T23:18:36.934Z,13.40
2022-11-26T23:21:06.771Z,13.20
2022-11-26T23:23:34.021Z,16.00
2022-11-26T23:26:02.677Z,13.50
2022-11-26T23:28:31.149Z,15.00
2022-11-26T23:31:07.916Z,14.00
2022-11-26T23:33:35.539Z,15.10
2022-11-26T23:36:02.700Z,13.60
2022-11-26T23:38:31.565Z,15.00
2022-11-26T23:41:01.796Z,13.00
2022-11-26T23:43:30.636Z,13.90
2022-11-26T23:46:14.178Z,16.10
2022-11-26T23:48:41.684Z,15.90
2022-11-26T23:51:11.653Z,14.20
2022-11-26T23:53:40.976Z,17.20
2022-11-26T23:56:11.633Z,16.70
2022-11-26T23:58:38.479Z,14.30
